Time;durP1;ratioP1;P1;durP2;ratioP2;P2;SDS_P1;SDS_P2;PMS_P1;PMS_P2;Temp;Humidity;BMP_temperature;BMP_pressure;BME280_temperature;BME280_humidity;BME280_pressure;Samples;Min_cycle;Max_cycle;Signal;HPM_P1;HPM_P2
2021/08/16 00:01:03;;;;;;;7.25;6.55;;;;;;;18.08;76.84;95601.09;1795435;80;21038;-59
2021/08/16 00:03:30;;;;;;;5.87;5.20;;;;;;;18.09;77.00;95600.17;1795192;80;21070;-59
2021/08/16 00:05:56;;;;;;;8.18;6.00;;;;;;;18.13;76.61;95595.05;1795511;80;21501;-59
2021/08/16 00:08:23;;;;;;;6.40;5.72;;;;;;;18.11;76.67;95586.72;1795413;80;21070;-59
2021/08/16 00:10:50;;;;;;;8.10;6.12;;;;;;;18.07;76.68;95590.02;1795494;80;20998;-59
2021/08/16 00:13:16;;;;;;;9.25;6.47;;;;;;;18.04;76.47;95591.52;1789741;80;21099;-59
2021/08/16 00:15:43;;;;;;;6.53;5.83;;;;;;;18.04;76.37;95594.63;1786556;80;21529;-59
2021/08/16 00:18:09;;;;;;;9.50;6.40;;;;;;;18.03;76.54;95593.77;1787353;80;21022;-59
2021/08/16 00:20:36;;;;;;;6.67;5.65;;;;;;;17.95;76.51;95595.47;1787128;80;21075;-59
2021/08/16 00:23:02;;;;;;;10.30;6.20;;;;;;;17.97;76.62;95600.75;1787088;80;20971;-59
2021/08/16 00:25:30;;;;;;;6.30;5.60;;;;;;;17.91;77.10;95602.36;1787119;80;21512;-59
2021/08/16 00:27:57;;;;;;;8.53;5.87;;;;;;;17.89;76.97;95598.44;1787289;80;20979;-59
2021/08/16 00:30:24;;;;;;;8.55;5.80;;;;;;;17.86;76.80;95593.23;1786616;80;21094;-59
2021/08/16 00:32:50;;;;;;;9.60;5.70;;;;;;;17.83;76.78;95592.52;1787094;80;20951;-59
2021/08/16 00:35:17;;;;;;;6.95;5.33;;;;;;;17.80;77.26;95595.34;1787156;80;21045;-59
2021/08/16 00:37:45;;;;;;;6.62;5.33;;;;;;;17.83;76.69;95588.52;1786985;80;21007;-59
2021/08/16 00:40:15;;;;;;;9.88;6.00;;;;;;;17.76;76.56;95601.71;1787103;80;21050;-59
2021/08/16 00:42:42;;;;;;;8.55;6.20;;;;;;;17.73;76.80;95600.05;1787177;80;20987;-59
2021/08/16 00:45:10;;;;;;;9.45;6.12;;;;;;;17.76;76.71;95601.71;1786651;80;21091;-59
2021/08/16 00:47:39;;;;;;;7.35;5.72;;;;;;;17.81;76.67;95596.58;1787304;80;21516;-59
2021/08/16 00:50:09;;;;;;;8.78;5.30;;;;;;;17.83;76.32;95596.05;1786969;80;21035;-59
2021/08/16 00:52:37;;;;;;;9.20;5.87;;;;;;;17.79;76.49;95595.78;1786953;80;21015;-59
2021/08/16 00:55:05;;;;;;;8.63;5.47;;;;;;;17.79;76.00;95593.55;1787034;80;21003;-59
2021/08/16 00:57:33;;;;;;;8.85;6.00;;;;;;;17.77;76.45;95588.78;1780105;80;21504;-59
2021/08/16 01:00:03;;;;;;;7.42;5.33;;;;;;;17.70;76.53;95584.19;1786794;80;21027;-60
2021/08/16 01:02:32;;;;;;;9.68;5.97;;;;;;;17.60;77.00;95589.56;1787140;80;21544;-59
2021/08/16 01:05:04;;;;;;;6.12;5.00;;;;;;;17.53;77.40;95587.16;1786212;80;21528;-59
2021/08/16 01:07:35;;;;;;;10.60;5.60;;;;;;;17.58;77.13;95580.28;1787230;80;21074;-59
2021/08/16 01:10:05;;;;;;;6.80;5.30;;;;;;;17.56;76.99;95575.95;1787286;80;20978;-59
2021/08/16 01:12:34;;;;;;;9.20;6.28;;;;;;;17.60;77.10;95575.74;1787108;80;21019;-59
2021/08/16 01:15:02;;;;;;;8.40;6.12;;;;;;;17.62;76.92;95562.34;1787034;80;20971;-59
2021/08/16 01:17:31;;;;;;;6.60;5.50;;;;;;;17.64;77.02;95564.00;1786995;80;21050;-59
2021/08/16 01:19:58;;;;;;;7.47;5.55;;;;;;;17.59;76.44;95559.35;1787037;80;20999;-59
2021/08/16 01:22:25;;;;;;;9.45;5.78;;;;;;;17.48;77.51;95561.16;1786992;80;21015;-59
2021/08/16 01:24:51;;;;;;;7.33;5.75;;;;;;;17.43;77.44;95553.84;1787311;80;21042;-59
2021/08/16 01:27:18;;;;;;;7.08;5.95;;;;;;;17.38;77.24;95555.86;1754567;80;21019;-59
2021/08/16 01:29:45;;;;;;;7.05;6.15;;;;;;;17.29;77.79;95557.16;1787202;80;21010;-59
2021/08/16 01:32:11;;;;;;;9.10;6.00;;;;;;;17.26;78.10;95552.41;1786723;80;20983;-59
2021/08/16 01:34:38;;;;;;;7.00;6.17;;;;;;;17.26;78.28;95555.97;1786810;80;21006;-59
2021/08/16 01:37:05;;;;;;;6.47;5.10;;;;;;;17.26;78.10;95555.08;1787009;80;21517;-59
2021/08/16 01:39:31;;;;;;;8.48;5.92;;;;;;;17.24;77.95;95559.17;1787046;80;21046;-60
2021/08/16 01:41:58;;;;;;;6.20;5.00;;;;;;;17.24;77.57;95561.84;1787094;80;21449;-59
2021/08/16 01:44:25;;;;;;;7.28;5.80;;;;;;;17.21;78.06;95561.98;1787120;80;20995;-59
2021/08/16 01:46:54;;;;;;;7.67;5.65;;;;;;;17.18;78.01;95561.23;1786792;80;20991;-59
2021/08/16 01:49:21;;;;;;;10.72;5.90;;;;;;;17.15;78.28;95552.05;1787023;80;21003;-59
2021/08/16 01:51:48;;;;;;;9.73;4.87;;;;;;;17.17;78.42;95558.18;1787084;80;21125;-59
2021/08/16 01:54:17;;;;;;;6.10;4.90;;;;;;;17.13;78.28;95557.44;1787118;80;20964;-59
2021/08/16 01:56:44;;;;;;;10.65;5.90;;;;;;;17.10;78.78;95556.25;1787305;80;21477;-59
2021/08/16 01:59:12;;;;;;;7.12;5.83;;;;;;;17.15;78.88;95555.58;1787020;80;21028;-59
2021/08/16 02:01:39;;;;;;;7.40;5.80;;;;;;;17.19;78.70;95559.84;1787098;80;21027;-59
2021/08/16 02:04:05;;;;;;;8.88;5.65;;;;;;;17.16;78.11;95558.66;1787029;80;21537;-59
2021/08/16 02:06:32;;;;;;;7.35;5.50;;;;;;;17.16;78.31;95558.66;1787511;80;20968;-59
2021/08/16 02:08:58;;;;;;;7.78;5.67;;;;;;;17.14;78.51;95556.52;1786894;80;21074;-59
2021/08/16 02:11:25;;;;;;;10.90;7.00;;;;;;;17.18;78.38;95559.42;1786997;80;21031;-59
2021/08/16 02:13:52;;;;;;;6.47;5.35;;;;;;;17.14;78.37;95560.99;1787286;80;21516;-59
2021/08/16 02:16:19;;;;;;;8.48;5.92;;;;;;;17.14;78.59;95562.33;1786670;80;21560;-59
2021/08/16 02:18:46;;;;;;;7.10;5.35;;;;;;;17.11;78.15;95558.00;1786966;80;21114;-59
2021/08/16 02:21:12;;;;;;;18.25;6.95;;;;;;;17.12;78.22;95561.05;1786881;80;21067;-59
2021/08/16 02:23:39;;;;;;;6.60;5.00;;;;;;;17.12;78.23;95555.72;1786890;80;20979;-59
2021/08/16 02:26:05;;;;;;;10.63;5.70;;;;;;;17.06;78.32;95560.00;1787235;80;21073;-59
2021/08/16 02:28:34;;;;;;;6.35;5.70;;;;;;;17.03;78.85;95562.34;1786907;80;21106;-59
2021/08/16 02:31:00;;;;;;;6.45;5.80;;;;;;;17.08;79.10;95554.11;1787211;80;20982;-59
2021/08/16 02:33:27;;;;;;;6.90;5.17;;;;;;;17.06;78.84;95552.87;1787193;80;20979;-59
2021/08/16 02:35:54;;;;;;;10.05;6.10;;;;;;;16.98;79.02;95560.78;1787122;80;20987;-60
2021/08/16 02:38:20;;;;;;;7.47;5.62;;;;;;;16.94;78.78;95556.08;1787398;80;21018;-59
2021/08/16 02:40:47;;;;;;;10.38;5.97;;;;;;;16.93;78.56;95558.32;1786903;80;21013;-59
2021/08/16 02:43:13;;;;;;;9.78;5.53;;;;;;;16.93;79.08;95557.46;1786853;80;21026;-59
2021/08/16 02:45:39;;;;;;;6.50;5.80;;;;;;;16.90;79.16;95548.28;1786861;80;20979;-60
2021/08/16 02:48:06;;;;;;;8.70;6.22;;;;;;;16.80;79.48;95552.66;1786897;80;21081;-59
2021/08/16 02:50:33;;;;;;;10.30;6.58;;;;;;;16.82;79.56;95551.28;1787163;80;21006;-58
2021/08/16 02:52:59;;;;;;;9.88;5.35;;;;;;;16.93;79.45;95546.80;1787208;80;21500;-59
2021/08/16 02:55:26;;;;;;;9.05;5.78;;;;;;;16.97;79.00;95547.94;1787268;80;21011;-59
2021/08/16 02:57:52;;;;;;;10.20;6.85;;;;;;;16.93;79.13;95543.66;1787144;80;20998;-59
2021/08/16 03:00:19;;;;;;;7.05;6.12;;;;;;;17.02;79.40;95549.92;1787009;80;21006;-59
2021/08/16 03:02:45;;;;;;;7.83;5.85;;;;;;;17.04;78.86;95542.73;1786761;80;21089;-59
2021/08/16 03:05:13;;;;;;;9.83;5.62;;;;;;;17.01;78.86;95545.98;1786869;80;21046;-59
2021/08/16 03:07:40;;;;;;;8.98;5.62;;;;;;;17.00;79.07;95554.45;1787135;80;21082;-59
2021/08/16 03:10:10;;;;;;;9.60;6.35;;;;;;;16.87;79.68;95558.61;1787246;80;21038;-59
2021/08/16 03:12:37;;;;;;;10.58;7.83;;;;;;;16.87;79.51;95560.80;1787047;80;20971;-60
2021/08/16 03:15:06;;;;;;;13.03;6.75;;;;;;;16.97;79.64;95554.59;1795449;80;21070;-59
2021/08/16 03:17:33;;;;;;;7.47;6.00;;;;;;;17.05;79.30;95557.78;1794993;80;21019;-59
2021/08/16 03:20:00;;;;;;;7.87;5.60;;;;;;;17.07;79.43;95553.73;1795529;80;21038;-59
2021/08/16 03:22:27;;;;;;;8.23;6.30;;;;;;;17.16;79.42;95555.09;1795177;80;21030;-59
2021/08/16 03:24:53;;;;;;;10.03;5.83;;;;;;;17.23;79.49;95559.22;1795319;80;21513;-59
2021/08/16 03:27:20;;;;;;;8.00;6.58;;;;;;;17.30;79.85;95560.68;1790421;80;21612;-59
2021/08/16 03:29:46;;;;;;;11.97;6.90;;;;;;;17.41;79.29;95557.08;1795627;80;21022;-59
2021/08/16 03:32:13;;;;;;;7.00;5.78;;;;;;;17.53;78.86;95559.63;1794762;80;21554;-59
2021/08/16 03:34:40;;;;;;;8.35;6.15;;;;;;;17.52;78.57;95558.77;1795439;80;21006;-59
2021/08/16 03:37:07;;;;;;;11.48;6.83;;;;;;;17.41;78.78;95546.84;1795200;80;21524;-59
2021/08/16 03:39:33;;;;;;;11.48;7.15;;;;;;;17.43;78.79;95548.50;1795509;80;20995;-59
2021/08/16 03:42:00;;;;;;;7.17;5.87;;;;;;;17.37;78.27;95538.14;1795436;80;21019;-59
2021/08/16 03:44:26;;;;;;;9.68;6.35;;;;;;;17.35;78.60;95540.47;1795387;80;21057;-59
2021/08/16 03:46:53;;;;;;;5.80;5.30;;;;;;;17.39;79.04;95535.41;1795336;80;21015;-59
2021/08/16 03:49:20;;;;;;;6.40;5.80;;;;;;;17.50;79.34;95545.95;1795393;80;21122;-59
2021/08/16 03:51:46;;;;;;;8.23;6.33;;;;;;;17.56;79.49;95539.46;1795443;80;21018;-59
2021/08/16 03:54:13;;;;;;;8.25;6.40;;;;;;;17.63;79.24;95552.06;1795056;80;21015;-59
2021/08/16 03:56:39;;;;;;;8.20;6.50;;;;;;;17.79;79.28;95561.53;1795482;80;20968;-59
2021/08/16 03:59:06;;;;;;;7.10;5.90;;;;;;;17.91;78.51;95589.87;1795376;80;21046;-59
2021/08/16 04:01:32;;;;;;;8.70;6.35;;;;;;;17.95;77.42;95607.95;1795307;80;21003;-59
2021/08/16 04:04:01;;;;;;;13.08;7.05;;;;;;;18.06;77.13;95615.45;1795895;80;21029;-59
2021/08/16 04:06:28;;;;;;;8.93;6.50;;;;;;;18.19;76.36;95641.09;1795629;80;21528;-59
2021/08/16 04:08:55;;;;;;;11.70;7.67;;;;;;;18.43;76.62;95639.92;1795360;80;21053;-59
2021/08/16 04:11:21;;;;;;;12.60;7.15;;;;;;;18.64;76.12;95619.76;1795368;80;21044;-59
2021/08/16 04:13:48;;;;;;;14.50;8.05;;;;;;;18.93;75.88;95640.58;1795334;80;21018;-59
2021/08/16 04:16:14;;;;;;;9.85;7.10;;;;;;;19.37;75.13;95640.08;1795250;80;21042;-59
2021/08/16 04:18:41;;;;;;;10.28;7.45;;;;;;;19.37;75.13;95640.08;1795573;80;21042;-59
2021/08/16 04:21:08;;;;;;;12.90;7.08;;;;;;;19.58;74.83;95643.45;1795388;80;20994;-59
2021/08/16 04:23:34;;;;;;;10.80;7.53;;;;;;;19.75;74.03;95637.20;1795218;80;21512;-59
2021/08/16 04:26:01;;;;;;;10.50;6.58;;;;;;;19.89;73.65;95649.86;1795574;80;20958;-59
2021/08/16 04:28:27;;;;;;;14.23;7.50;;;;;;;20.00;73.35;95654.63;1795303;80;20983;-59
2021/08/16 04:30:54;;;;;;;9.43;6.92;;;;;;;20.09;73.03;95642.93;1795237;80;21014;-59
2021/08/16 04:33:24;;;;;;;12.10;7.33;;;;;;;20.18;72.58;95640.20;1795439;80;20992;-59
2021/08/16 04:35:49;;;;;;;10.45;7.22;;;;;;;20.26;72.63;95647.80;1794810;80;21085;-59
2021/08/16 04:38:19;;;;;;;9.60;6.50;;;;;;;20.30;72.52;95661.44;1795480;80;21048;-59
2021/08/16 04:40:44;;;;;;;12.70;6.55;;;;;;;20.34;72.32;95672.86;1795079;80;21017;-59
2021/08/16 04:43:10;;;;;;;7.53;6.72;;;;;;;20.41;71.94;95676.91;1795595;80;20982;-59
2021/08/16 04:45:37;;;;;;;13.03;7.53;;;;;;;20.48;72.11;95676.47;1795479;80;21530;-59
2021/08/16 04:48:04;;;;;;;9.20;7.03;;;;;;;20.58;71.96;95678.67;1795547;80;20979;-59
2021/08/16 04:50:31;;;;;;;11.80;7.33;;;;;;;20.67;71.68;95674.14;1795304;80;21006;-59
2021/08/16 04:52:57;;;;;;;14.65;7.50;;;;;;;20.71;71.39;95683.72;1795626;80;21397;-59
2021/08/16 04:55:24;;;;;;;11.20;7.47;;;;;;;20.73;71.47;95677.31;1795677;80;21006;-59
2021/08/16 04:57:51;;;;;;;11.65;7.97;;;;;;;20.73;71.61;95681.81;1795345;80;20987;-59
2021/08/16 05:00:23;;;;;;;18.07;9.03;;;;;;;20.75;71.44;95687.97;1795307;80;21492;-59
2021/08/16 05:02:47;;;;;;;13.65;8.18;;;;;;;20.81;71.56;95700.15;1794470;80;21010;-59
2021/08/16 05:05:16;;;;;;;12.68;7.65;;;;;;;20.90;71.46;95699.15;1795307;80;21082;-59
2021/08/16 05:07:49;;;;;;;12.43;8.00;;;;;;;20.97;71.43;95686.26;1795351;80;20983;-59
2021/08/16 05:10:18;;;;;;;10.70;8.68;;;;;;;21.03;71.16;95687.23;1795303;80;21026;-59
2021/08/16 05:12:46;;;;;;;15.25;7.72;;;;;;;21.11;71.00;95684.95;1795468;80;20987;-59
2021/08/16 05:15:13;;;;;;;12.98;7.78;;;;;;;21.15;71.01;95689.68;1788394;80;21508;-59
2021/08/16 05:17:40;;;;;;;12.50;8.53;;;;;;;21.17;71.17;95687.30;1786776;80;21031;-59
2021/08/16 05:20:09;;;;;;;12.75;8.00;;;;;;;21.24;71.10;95698.98;1786891;80;21043;-59
2021/08/16 05:22:39;;;;;;;14.93;6.90;;;;;;;21.21;70.99;95702.72;1787173;80;21489;-59
2021/08/16 05:25:08;;;;;;;10.00;7.10;;;;;;;21.20;70.93;95709.54;1786980;80;20991;-59
2021/08/16 05:27:34;;;;;;;11.12;7.20;;;;;;;21.21;70.62;95701.38;1787319;80;21504;-59
2021/08/16 05:30:01;;;;;;;13.43;6.95;;;;;;;21.24;70.46;95697.16;1786930;80;21026;-59
2021/08/16 05:32:27;;;;;;;15.98;7.15;;;;;;;21.27;70.38;95698.80;1787299;80;20991;-59
2021/08/16 05:34:54;;;;;;;13.60;6.50;;;;;;;21.30;70.23;95702.67;1787001;80;21134;-59
2021/08/16 05:37:20;;;;;;;10.35;6.58;;;;;;;21.34;70.83;95702.86;1787171;80;21099;-59
2021/08/16 05:39:47;;;;;;;10.98;6.53;;;;;;;21.41;70.24;95704.26;1786821;80;20992;-59
2021/08/16 05:42:16;;;;;;;11.18;6.85;;;;;;;21.47;70.76;95706.59;1787507;80;20939;-59
2021/08/16 05:44:43;;;;;;;13.50;6.70;;;;;;;21.55;70.70;95698.94;1787105;80;21495;-61
2021/08/16 05:47:10;;;;;;;9.90;5.90;;;;;;;21.66;70.47;95696.08;1787044;80;21117;-59
2021/08/16 05:49:37;;;;;;;9.23;5.47;;;;;;;21.78;70.12;95701.56;1786944;80;21087;-59
2021/08/16 05:52:04;;;;;;;12.80;6.15;;;;;;;21.89;69.73;95693.32;1787503;80;21034;-59
2021/08/16 05:54:31;;;;;;;13.58;6.85;;;;;;;22.02;69.28;95691.14;1787208;80;21003;-59
2021/08/16 05:56:57;;;;;;;12.05;6.10;;;;;;;22.17;69.33;95685.73;1787202;80;21081;-59
2021/08/16 05:59:24;;;;;;;11.10;6.50;;;;;;;22.30;68.43;95681.38;1787198;80;21492;-59
2021/08/16 06:01:51;;;;;;;17.32;6.95;;;;;;;22.41;68.36;95673.95;1786903;80;21047;-59
2021/08/16 06:04:18;;;;;;;16.37;6.87;;;;;;;22.57;68.13;95672.48;1786805;80;21031;-59
2021/08/16 06:06:45;;;;;;;15.18;7.47;;;;;;;22.66;67.90;95667.36;1787365;80;20951;-59
2021/08/16 06:09:12;;;;;;;10.65;7.60;;;;;;;22.79;67.42;95665.22;1786902;80;21548;-59
2021/08/16 06:11:38;;;;;;;12.68;7.10;;;;;;;22.82;66.80;95664.52;1786905;80;21023;-59
2021/08/16 06:14:05;;;;;;;8.78;7.05;;;;;;;22.88;65.80;95664.13;1788390;80;21484;-59
2021/08/16 06:16:31;;;;;;;11.48;7.00;;;;;;;22.88;64.23;95662.79;1795580;80;20974;-59
2021/08/16 06:18:58;;;;;;;8.13;7.00;;;;;;;22.93;64.37;95658.45;1795406;80;21054;-59
2021/08/16 06:21:24;;;;;;;11.18;7.00;;;;;;;22.98;63.85;95656.35;1795477;80;21014;-59
2021/08/16 06:23:51;;;;;;;10.32;7.65;;;;;;;23.00;63.54;95657.58;1795238;80;21045;-59
2021/08/16 06:26:18;;;;;;;12.05;7.65;;;;;;;22.93;62.39;95658.45;1795711;80;21018;-59
2021/08/16 06:28:44;;;;;;;9.18;6.95;;;;;;;23.03;63.36;95657.36;1795522;80;21461;-59
2021/08/16 06:31:11;;;;;;;10.10;7.10;;;;;;;23.13;62.82;95650.88;1795644;80;20979;-59
2021/08/16 06:33:40;;;;;;;9.68;8.03;;;;;;;23.25;63.09;95646.88;1795098;80;21019;-59
2021/08/16 06:36:06;;;;;;;11.70;7.12;;;;;;;23.31;63.15;95648.31;1795426;80;21003;-59
2021/08/16 06:38:34;;;;;;;11.43;7.25;;;;;;;23.22;61.73;95649.78;1795440;80;21026;-59
2021/08/16 06:41:02;;;;;;;12.95;7.35;;;;;;;23.36;62.53;95653.36;1795604;80;20990;-59
2021/08/16 06:43:32;;;;;;;12.33;7.22;;;;;;;23.50;62.03;95655.97;1795630;80;21484;-59
2021/08/16 06:45:59;;;;;;;16.12;6.87;;;;;;;23.65;62.47;95666.18;1795526;80;21579;-59
2021/08/16 06:48:26;;;;;;;18.32;7.50;;;;;;;23.72;61.18;95658.94;1795466;80;20978;-59
2021/08/16 06:50:53;;;;;;;18.37;8.58;;;;;;;23.73;60.53;95657.95;1795415;80;21050;-59
2021/08/16 06:53:19;;;;;;;11.53;7.55;;;;;;;23.88;61.06;95655.17;1795202;80;20987;-59
2021/08/16 06:55:47;;;;;;;13.25;7.25;;;;;;;23.97;60.38;95647.30;1795529;80;21343;-59
2021/08/16 06:58:14;;;;;;;14.45;7.40;;;;;;;24.11;60.46;95649.49;1795501;80;21049;-59
2021/08/16 07:00:43;;;;;;;9.08;6.58;;;;;;;24.10;58.96;95647.78;1795522;80;21046;-59
2021/08/16 07:03:10;;;;;;;13.20;7.00;;;;;;;24.21;59.75;95642.95;1795186;80;21081;-60
2021/08/16 07:05:42;;;;;;;9.13;7.60;;;;;;;24.32;59.57;95643.06;1795583;80;20998;-59
2021/08/16 07:08:10;;;;;;;9.18;8.13;;;;;;;24.47;58.91;95640.63;1796242;80;21531;-59
2021/08/16 07:10:37;;;;;;;12.20;7.00;;;;;;;24.57;59.00;95646.22;1795395;80;21010;-59
2021/08/16 07:13:03;;;;;;;8.75;7.60;;;;;;;24.65;58.19;95646.51;1795556;80;20974;-59
2021/08/16 07:15:30;;;;;;;8.68;7.30;;;;;;;24.70;57.85;95640.28;1795316;80;21053;-59
2021/08/16 07:17:57;;;;;;;13.35;7.22;;;;;;;24.76;58.13;95637.11;1795095;80;21038;-59
2021/08/16 07:20:24;;;;;;;7.80;6.58;;;;;;;24.87;58.02;95637.66;1795598;80;20975;-59
2021/08/16 07:22:51;;;;;;;10.98;7.42;;;;;;;24.91;57.16;95639.66;1795306;80;21019;-59
2021/08/16 07:25:17;;;;;;;7.92;7.08;;;;;;;24.93;56.41;95639.92;1795502;80;21031;-59
2021/08/16 07:27:44;;;;;;;12.63;7.80;;;;;;;25.03;57.48;95632.84;1795666;80;21007;-59
2021/08/16 07:30:12;;;;;;;8.23;7.08;;;;;;;25.19;57.57;95629.87;1795175;80;21074;-59
2021/08/16 07:32:39;;;;;;;10.98;8.08;;;;;;;25.30;56.82;95627.72;1795451;80;21034;-59
2021/08/16 07:35:07;;;;;;;11.22;7.55;;;;;;;25.29;56.30;95628.68;1795402;80;21090;-59
2021/08/16 07:37:33;;;;;;;9.30;6.87;;;;;;;25.39;56.22;95627.00;1795469;80;21042;-59
2021/08/16 07:40:00;;;;;;;10.45;7.90;;;;;;;25.53;56.47;95624.59;1795728;80;20982;-59
2021/08/16 07:42:28;;;;;;;9.98;7.70;;;;;;;25.60;56.15;95620.91;1795498;80;21018;-59
2021/08/16 07:44:54;;;;;;;9.75;7.20;;;;;;;25.69;55.34;95621.55;1795474;80;21025;-59
2021/08/16 07:47:21;;;;;;;7.67;6.83;;;;;;;25.69;54.55;95618.84;1795271;80;21029;-59
2021/08/16 07:49:47;;;;;;;9.53;6.97;;;;;;;25.73;54.90;95609.53;1794988;80;21015;-59
2021/08/16 07:52:14;;;;;;;11.18;7.08;;;;;;;25.82;54.97;95607.93;1795475;80;21042;-59
2021/08/16 07:54:40;;;;;;;12.18;7.12;;;;;;;25.86;54.60;95606.25;1795335;80;21584;-59
2021/08/16 07:57:07;;;;;;;9.53;7.22;;;;;;;25.95;54.34;95599.73;1795257;80;21106;-59
2021/08/16 07:59:33;;;;;;;14.03;7.67;;;;;;;26.10;55.29;95604.77;1795088;80;21018;-59
2021/08/16 08:02:01;;;;;;;13.18;7.92;;;;;;;26.27;54.28;95594.45;1795288;80;21045;-59
2021/08/16 08:04:28;;;;;;;11.50;8.08;;;;;;;26.37;53.63;95595.92;1795374;80;21079;-59
2021/08/16 08:06:54;;;;;;;10.08;7.75;;;;;;;26.48;53.68;95587.77;1795306;80;21033;-59
2021/08/16 08:09:21;;;;;;;9.18;7.70;;;;;;;26.65;53.61;95586.42;1795526;80;21455;-59
2021/08/16 08:11:48;;;;;;;16.70;7.97;;;;;;;26.87;52.90;95587.71;1795359;80;21065;-59
2021/08/16 08:14:15;;;;;;;13.53;8.00;;;;;;;27.03;52.55;95586.42;1795241;80;21001;-60
2021/08/16 08:16:42;;;;;;;13.55;7.60;;;;;;;27.00;50.87;95580.77;1779953;80;21054;-59
2021/08/16 08:19:08;;;;;;;11.85;8.13;;;;;;;27.00;50.60;95578.56;1787191;80;20983;-60
2021/08/16 08:21:35;;;;;;;12.80;7.53;;;;;;;27.06;51.10;95576.67;1779816;80;20983;-59
2021/08/16 08:24:02;;;;;;;11.30;7.95;;;;;;;27.19;50.70;95571.49;1787221;80;20979;-59
2021/08/16 08:26:28;;;;;;;13.20;8.15;;;;;;;27.30;51.14;95567.86;1786927;80;21007;-59
2021/08/16 08:28:55;;;;;;;12.63;8.43;;;;;;;27.45;50.93;95565.68;1787204;80;20991;-59
2021/08/16 08:31:22;;;;;;;10.78;7.95;;;;;;;27.69;49.73;95572.66;1786794;80;21031;-59
2021/08/16 08:33:48;;;;;;;14.00;8.10;;;;;;;27.70;49.54;95563.05;1786873;80;21066;-59
2021/08/16 08:36:15;;;;;;;11.18;8.13;;;;;;;27.73;49.22;95553.80;1787388;80;20999;-59
2021/08/16 08:38:41;;;;;;;8.90;7.92;;;;;;;27.83;50.10;95557.45;1787153;80;21583;-59
2021/08/16 08:41:11;;;;;;;11.73;7.97;;;;;;;27.99;49.37;95554.23;1786673;80;21057;-59
2021/08/16 08:43:39;;;;;;;8.60;7.80;;;;;;;28.11;48.20;95550.94;1787063;80;21134;-59
2021/08/16 08:46:06;;;;;;;9.38;7.37;;;;;;;28.27;48.86;95548.55;1787167;80;20979;-58
2021/08/16 08:48:33;;;;;;;9.58;7.42;;;;;;;28.42;48.40;95547.66;1786481;80;22273;-59
2021/08/16 08:51:00;;;;;;;9.30;7.50;;;;;;;28.62;48.40;95548.09;1787022;80;21038;-59
2021/08/16 08:53:28;;;;;;;10.05;7.30;;;;;;;28.72;47.29;95544.04;1786867;80;21031;-59
2021/08/16 08:55:55;;;;;;;11.80;7.35;;;;;;;28.77;47.53;95545.83;1787152;80;21003;-59
2021/08/16 08:58:21;;;;;;;11.80;7.25;;;;;;;28.82;47.33;95538.62;1787120;80;21082;-60
2021/08/16 09:00:49;;;;;;;19.62;8.40;;;;;;;28.87;46.00;95537.70;1786824;80;21122;-59
2021/08/16 09:03:16;;;;;;;9.00;7.15;;;;;;;28.83;46.19;95532.21;1786547;80;21004;-59
2021/08/16 09:05:53;;;;;;;10.38;7.72;;;;;;;28.86;46.94;95527.84;1787354;80;21006;-59
2021/08/16 09:08:31;;;;;;;9.33;7.12;;;;;;;29.04;46.16;95527.98;1785990;80;21524;-59
2021/08/16 09:11:06;;;;;;;12.70;7.65;;;;;;;29.17;45.59;95521.78;1787030;80;21485;-59
2021/08/16 09:13:33;;;;;;;12.47;7.00;;;;;;;29.37;46.04;95525.84;1787099;80;21014;-59
2021/08/16 09:16:09;;;;;;;11.63;7.53;;;;;;;29.39;45.51;95520.62;1786813;80;21019;-60
2021/08/16 09:18:36;;;;;;;10.13;7.55;;;;;;;29.46;46.19;95517.68;1786030;80;21066;-60
2021/08/16 09:21:03;;;;;;;10.25;7.33;;;;;;;29.54;45.19;95501.99;1787188;80;21449;-59
2021/08/16 09:23:46;;;;;;;8.15;6.60;;;;;;;29.64;45.77;95506.05;1787231;80;21042;-59
2021/08/16 09:26:16;;;;;;;11.65;7.10;;;;;;;29.86;44.92;95503.48;1787207;80;20952;-60
2021/08/16 09:28:42;;;;;;;9.00;7.35;;;;;;;29.91;44.20;95494.36;1787252;80;21015;-60
2021/08/16 09:31:19;;;;;;;10.65;7.15;;;;;;;30.10;45.63;95495.64;1787212;80;21465;-60
2021/08/16 09:33:57;;;;;;;11.63;7.55;;;;;;;30.32;43.93;95503.09;1787038;80;21494;-60
2021/08/16 09:36:39;;;;;;;9.65;7.15;;;;;;;30.36;43.87;95498.53;1787009;80;20987;-60
2021/08/16 09:39:20;;;;;;;9.55;7.20;;;;;;;30.45;43.96;95500.86;1787236;80;21003;-60
2021/08/16 09:41:48;;;;;;;8.60;7.17;;;;;;;30.65;43.61;95499.38;1787162;80;21436;-59
2021/08/16 09:44:15;;;;;;;10.25;7.35;;;;;;;30.80;43.18;95495.10;1786932;80;21007;-60
2021/08/16 09:46:42;;;;;;;10.13;6.83;;;;;;;30.81;42.07;95489.99;1787015;80;21047;-60
2021/08/16 09:49:09;;;;;;;9.05;7.20;;;;;;;30.77;42.95;95491.30;1786640;80;21022;-59
2021/08/16 09:51:37;;;;;;;9.40;7.03;;;;;;;30.70;43.07;95486.16;1787034;80;21512;-60
2021/08/16 09:54:04;;;;;;;7.55;6.70;;;;;;;30.75;43.25;95483.81;1786773;80;21057;-60
2021/08/16 09:56:31;;;;;;;10.32;6.95;;;;;;;31.01;43.00;95480.67;1787135;80;20979;-60
2021/08/16 09:58:57;;;;;;;8.38;6.55;;;;;;;31.28;42.43;95475.28;1786929;80;21027;-59
2021/08/16 10:01:24;;;;;;;10.75;6.92;;;;;;;31.48;42.59;95470.86;1787080;80;20983;-60
2021/08/16 10:03:51;;;;;;;9.88;6.95;;;;;;;31.71;41.58;95464.86;1787060;80;21035;-60
2021/08/16 10:06:18;;;;;;;7.35;6.62;;;;;;;31.85;40.93;95468.36;1787006;80;21061;-60
2021/08/16 10:08:55;;;;;;;7.35;6.58;;;;;;;31.90;41.85;95471.45;1787046;80;21042;-59
2021/08/16 10:11:23;;;;;;;8.18;6.83;;;;;;;32.04;41.11;95465.91;1787124;80;21055;-60
2021/08/16 10:13:55;;;;;;;9.88;6.35;;;;;;;32.33;40.92;95461.42;1786910;80;21539;-59
2021/08/16 10:16:30;;;;;;;7.60;6.53;;;;;;;32.51;40.70;95453.14;1792486;80;21591;-60
2021/08/16 10:19:17;;;;;;;9.53;6.80;;;;;;;32.66;39.97;95457.92;1794906;80;21033;-60
2021/08/16 10:21:44;;;;;;;12.33;6.35;;;;;;;32.65;39.49;95460.33;1794007;80;21018;-60
2021/08/16 10:24:28;;;;;;;9.63;7.08;;;;;;;32.85;39.05;95458.14;1795605;80;21010;-60
2021/08/16 10:27:03;;;;;;;10.58;7.08;;;;;;;32.69;38.95;95451.63;1795455;80;21050;-60
2021/08/16 10:29:31;;;;;;;9.60;6.80;;;;;;;32.76;39.46;95454.04;1795543;80;21049;-60
2021/08/16 10:32:00;;;;;;;8.18;6.70;;;;;;;32.79;38.07;95450.11;1795554;80;21070;-60
2021/08/16 10:34:36;;;;;;;9.15;6.60;;;;;;;32.79;38.46;95450.63;1794965;80;21085;-60
2021/08/16 10:37:10;;;;;;;11.15;6.80;;;;;;;32.82;38.42;95447.03;1764408;80;21030;-59
2021/08/16 10:39:42;;;;;;;18.65;7.35;;;;;;;33.03;39.26;95438.36;1795437;80;21527;-59
2021/08/16 10:42:14;;;;;;;7.28;6.58;;;;;;;33.24;37.80;95440.59;1795614;80;21002;-59
2021/08/16 10:44:47;;;;;;;8.93;6.60;;;;;;;33.28;38.83;95441.94;1795520;80;21011;-60
2021/08/16 10:47:32;;;;;;;11.45;6.70;;;;;;;33.41;38.21;95430.47;1795456;80;20983;-60
2021/08/16 10:50:12;;;;;;;10.08;6.75;;;;;;;33.59;38.69;95435.76;1795405;80;20990;-60
2021/08/16 10:52:41;;;;;;;9.15;6.80;;;;;;;33.78;37.05;95437.27;1795647;80;21019;-60
2021/08/16 10:55:15;;;;;;;9.58;6.72;;;;;;;33.78;37.49;95423.58;1795262;80;21113;-60
2021/08/16 10:57:44;;;;;;;8.15;6.75;;;;;;;33.95;37.69;95425.76;1795679;80;20983;-60
2021/08/16 11:00:14;;;;;;;7.72;7.10;;;;;;;33.97;36.77;95427.77;1795632;80;20999;-60
2021/08/16 11:02:42;;;;;;;10.40;6.58;;;;;;;34.07;37.44;95418.90;1795393;80;21041;-60
2021/08/16 11:05:11;;;;;;;9.78;6.37;;;;;;;34.26;36.90;95421.70;1795571;80;21017;-60
2021/08/16 11:07:40;;;;;;;11.18;7.67;;;;;;;34.24;37.22;95423.23;1795419;80;21023;-59
2021/08/16 11:10:10;;;;;;;7.92;6.70;;;;;;;34.21;37.20;95410.43;1795517;80;20990;-60
2021/08/16 11:12:46;;;;;;;11.22;7.22;;;;;;;34.49;36.92;95416.26;1795500;80;21043;-59
2021/08/16 11:15:13;;;;;;;9.68;7.03;;;;;;;34.59;36.68;95420.17;1793896;80;20977;-60
2021/08/16 11:17:39;;;;;;;10.70;6.85;;;;;;;34.64;36.71;95420.48;1795485;80;21026;-60
2021/08/16 11:20:15;;;;;;;8.85;6.42;;;;;;;34.49;35.51;95408.04;1795498;80;21460;-60
2021/08/16 11:22:45;;;;;;;10.40;7.12;;;;;;;34.60;36.48;95410.91;1794971;80;20987;-59
2021/08/16 11:25:11;;;;;;;8.15;6.60;;;;;;;34.74;36.69;95409.28;1795198;80;20986;-60
2021/08/16 11:27:43;;;;;;;9.55;6.87;;;;;;;34.82;35.92;95404.58;1795258;80;21599;-60
2021/08/16 11:30:12;;;;;;;9.93;6.10;;;;;;;34.67;35.61;95403.14;1795916;80;20998;-60
2021/08/16 11:32:41;;;;;;;9.33;7.58;;;;;;;34.71;36.19;95407.77;1795532;80;21011;-60